createdAt,value
2023-05-10T00:08:07.268Z,92.77
2023-05-10T00:18:11.001Z,93.41
2023-05-10T00:28:13.416Z,94.43
2023-05-10T00:38:17.565Z,91.54
2023-05-10T00:48:20.109Z,90.52
2023-05-10T00:58:24.903Z,91.58
2023-05-10T01:08:27.645Z,91.73
2023-05-10T01:18:32.719Z,90.85
2023-05-10T01:28:49.972Z,89.90
2023-05-10T01:38:54.930Z,89.71
2023-05-10T01:48:59.659Z,88.94
2023-05-10T01:59:07.809Z,88.08
2023-05-10T02:09:10.999Z,88.12
2023-05-10T02:19:16.089Z,88.08
2023-05-10T02:29:19.060Z,86.73
2023-05-10T02:39:23.292Z,87.06
2023-05-10T02:49:25.663Z,86.64
2023-05-10T02:59:29.371Z,87.68
2023-05-10T03:09:32.192Z,87.79
2023-05-10T03:19:41.765Z,87.16
2023-05-10T03:29:45.409Z,86.83
2023-05-10T03:39:49.163Z,86.44
2023-05-10T03:49:51.506Z,85.94
2023-05-10T03:59:55.361Z,85.99
2023-05-10T04:09:57.721Z,86.66
2023-05-10T04:20:01.462Z,86.63
2023-05-10T04:30:03.902Z,86.33
2023-05-10T04:40:08.660Z,86.78
2023-05-10T04:50:11.690Z,88.48
2023-05-10T05:00:16.211Z,88.25
2023-05-10T05:10:18.891Z,87.68
2023-05-10T05:20:23.003Z,87.75
2023-05-10T05:30:25.339Z,88.54
2023-05-10T05:40:29.042Z,90.12
2023-05-10T05:50:31.481Z,90.48
2023-05-10T06:00:35.307Z,90.85
2023-05-10T06:10:37.777Z,89.42
2023-05-10T06:20:42.835Z,89.13
2023-05-10T06:30:45.420Z,89.48
2023-05-10T06:40:49.260Z,89.62
2023-05-10T06:50:51.600Z,89.34
2023-05-10T07:00:55.308Z,89.10
2023-05-10T07:11:01.355Z,88.67
2023-05-10T07:21:05.251Z,88.31
2023-05-10T07:31:07.829Z,89.61
2023-05-10T07:41:11.642Z,88.35
2023-05-10T07:51:14.289Z,88.83
2023-05-10T08:01:18.025Z,87.84
2023-05-10T08:11:21.437Z,88.04
2023-05-10T08:21:25.463Z,83.22
2023-05-10T08:31:27.892Z,83.72
2023-05-10T08:41:32.008Z,82.70
2023-05-10T08:51:37.632Z,81.70
2023-05-10T09:01:42.294Z,75.24
2023-05-10T09:11:44.773Z,74.02
2023-05-10T09:21:48.465Z,70.75
2023-05-10T09:31:53.025Z,71.40
2023-05-10T09:41:56.922Z,70.97
2023-05-10T09:52:03.595Z,68.66
2023-05-10T10:02:07.831Z,67.44
2023-05-10T10:12:10.466Z,64.89
2023-05-10T10:22:14.187Z,73.62
2023-05-10T10:32:22.531Z,72.63
2023-05-10T10:42:47.817Z,71.92
2023-05-10T10:52:53.029Z,69.44
2023-05-10T11:02:58.495Z,68.01
2023-05-10T11:13:02.773Z,67.92
2023-05-10T11:23:16.701Z,67.21
2023-05-10T11:33:20.357Z,67.27
2023-05-10T11:43:29.126Z,70.19
2023-05-10T11:53:31.981Z,71.53
2023-05-10T12:03:36.203Z,70.95
2023-05-10T12:13:39.925Z,69.23
2023-05-10T12:23:47.239Z,69.41
2023-05-10T12:33:50.294Z,69.58
2023-05-10T12:43:54.018Z,65.60
2023-05-10T12:53:56.629Z,63.60
2023-05-10T13:04:01.038Z,65.18
2023-05-10T13:14:04.124Z,63.59
2023-05-10T13:24:07.862Z,60.11
2023-05-10T13:34:10.332Z,61.50
2023-05-10T13:44:15.574Z,59.81
2023-05-10T13:54:20.306Z,63.66
2023-05-10T14:04:23.984Z,64.92
2023-05-10T14:14:26.355Z,65.10
2023-05-10T14:24:30.079Z,65.29
2023-05-10T14:34:32.492Z,63.42
2023-05-10T14:44:36.388Z,62.03
2023-05-10T14:54:39.571Z,61.11
2023-05-10T15:04:43.285Z,60.25
2023-05-10T15:14:46.180Z,61.89
2023-05-10T15:24:49.928Z,58.82
2023-05-10T15:34:52.380Z,57.04
2023-05-10T15:44:56.138Z,57.73
2023-05-10T15:54:58.513Z,57.15
2023-05-10T16:05:02.201Z,57.09
2023-05-10T16:15:05.078Z,58.24
2023-05-10T16:25:10.215Z,61.11
2023-05-10T16:35:14.100Z,62.92
2023-05-10T16:45:18.178Z,62.73
2023-05-10T16:55:20.891Z,62.67
2023-05-10T17:05:24.628Z,63.46
2023-05-10T17:15:27.069Z,64.53
2023-05-10T17:25:30.803Z,64.96
2023-05-10T17:35:33.302Z,66.59
2023-05-10T17:45:37.097Z,66.10
2023-05-10T17:55:41.073Z,65.76
2023-05-10T18:05:45.555Z,66.53
2023-05-10T18:15:47.999Z,66.67
2023-05-10T18:25:51.887Z,67.48
2023-05-10T18:35:54.363Z,67.75
2023-05-10T18:45:58.101Z,69.03
2023-05-10T18:56:00.556Z,68.87
2023-05-10T19:06:04.307Z,68.66
2023-05-10T19:16:07.097Z,68.22
2023-05-10T19:26:12.291Z,68.58
2023-05-10T19:36:14.689Z,69.23
2023-05-10T19:46:20.130Z,69.00
2023-05-10T19:56:22.737Z,68.69
2023-05-10T20:06:27.345Z,68.66
2023-05-10T20:16:29.747Z,68.57
2023-05-10T20:26:33.917Z,69.77
2023-05-10T20:36:37.382Z,70.05
2023-05-10T20:46:41.289Z,70.59
2023-05-10T20:56:43.900Z,70.95
2023-05-10T21:06:47.752Z,70.83
2023-05-10T21:16:51.170Z,69.90
2023-05-10T21:26:55.026Z,68.98
2023-05-10T21:36:57.443Z,70.60
2023-05-10T21:47:01.153Z,71.43
2023-05-10T21:57:03.618Z,71.13
2023-05-10T22:07:08.939Z,71.31
2023-05-10T22:17:11.862Z,71.43
2023-05-10T22:27:15.671Z,71.45
2023-05-10T22:37:18.140Z,71.64
2023-05-10T22:47:21.887Z,71.90
2023-05-10T22:57:24.482Z,72.18
2023-05-10T23:07:28.233Z,72.01
2023-05-10T23:17:30.632Z,72.13
2023-05-10T23:27:34.570Z,72.45
2023-05-10T23:37:37.587Z,72.24
2023-05-10T23:47:41.417Z,73.03
2023-05-10T23:57:43.924Z,72.95
